Time;durP1;ratioP1;P1;durP2;ratioP2;P2;SDS_P1;SDS_P2;PMS_P1;PMS_P2;Temp;Humidity;BMP_temperature;BMP_pressure;BME280_temperature;BME280_humidity;BME280_pressure;Samples;Min_cycle;Max_cycle;Signal;HPM_P1;HPM_P2
2024/04/17 04:44:07;;;;;;;20.00;8.70;;;;;;;14.69;100.00;98370.98;111488;1249;24198;-55
2024/04/17 04:46:35;;;;;;;18.80;7.80;;;;;;;14.75;100.00;98375.41;110911;1241;22765;-47
2024/04/17 04:49:11;;;;;;;12.80;8.30;;;;;;;14.89;100.00;98383.20;111880;1248;25390;-47
2024/04/17 04:51:38;;;;;;;13.10;7.60;;;;;;;15.01;100.00;98394.39;112620;1241;22434;-47
2024/04/17 04:54:04;;;;;;;15.30;7.70;;;;;;;15.10;100.00;98400.41;112327;1241;22478;-54
2024/04/17 04:56:31;;;;;;;13.50;7.50;;;;;;;15.17;100.00;98411.49;110845;1237;25320;-55
2024/04/17 04:58:58;;;;;;;16.30;7.60;;;;;;;15.20;100.00;98413.13;110800;1247;22542;-49
2024/04/17 05:01:26;;;;;;;14.90;7.50;;;;;;;15.21;100.00;98413.80;112734;1248;22383;-55
2024/04/17 05:03:53;;;;;;;12.60;7.60;;;;;;;15.21;100.00;98413.41;113002;1237;22892;-54
2024/04/17 05:06:20;;;;;;;15.80;7.70;;;;;;;15.29;100.00;98411.80;113023;1244;22663;-54
2024/04/17 05:08:46;;;;;;;14.40;8.10;;;;;;;15.42;100.00;98414.84;112967;1248;23069;-48
2024/04/17 05:11:13;;;;;;;16.90;7.80;;;;;;;15.53;100.00;98418.20;112923;1237;22441;-48
2024/04/17 05:13:40;;;;;;;14.60;7.50;;;;;;;15.59;100.00;98415.61;111897;1244;22895;-55
2024/04/17 05:16:07;;;;;;;19.70;7.70;;;;;;;15.60;100.00;98413.96;112975;1242;22416;-55
2024/04/17 05:18:37;;;;;;;13.20;6.90;;;;;;;15.60;100.00;98407.65;112932;1238;22420;-56
2024/04/17 05:21:04;;;;;;;13.00;7.40;;;;;;;15.59;100.00;98405.22;112849;1244;22967;-54
2024/04/17 05:23:31;;;;;;;13.70;7.10;;;;;;;15.61;100.00;98394.23;112532;1244;23279;-55
2024/04/17 05:25:58;;;;;;;12.40;6.80;;;;;;;15.70;100.00;98389.95;112485;1241;22432;-54
2024/04/17 05:28:45;;;;;;;14.90;7.40;;;;;;;15.78;100.00;98378.64;112648;1248;23106;-54
2024/04/17 05:32:41;;;;;;;15.60;7.40;;;;;;;16.03;100.00;98358.86;112133;1248;22571;-46
2024/04/17 05:35:37;;;;;;;11.60;6.70;;;;;;;16.19;100.00;98342.36;111632;1247;22526;-57
2024/04/17 05:41:20;;;;;;;24.20;8.20;;;;;;;16.21;100.00;98325.55;112003;1248;23035;-55
2024/04/17 05:43:58;;;;;;;13.70;6.30;;;;;;;16.18;100.00;98325.86;112439;1248;23607;-46
2024/04/17 05:46:53;;;;;;;15.00;6.80;;;;;;;16.19;100.00;98319.66;111675;1244;24101;-47
2024/04/17 05:49:24;;;;;;;15.90;6.90;;;;;;;16.17;100.00;98313.63;110675;1248;22855;-56
2024/04/17 05:55:40;;;;;;;11.90;7.00;;;;;;;16.14;100.00;98295.29;111769;1248;22822;-55
2024/04/17 05:58:43;;;;;;;13.30;7.30;;;;;;;16.20;100.00;98292.33;111939;1248;23124;-44
2024/04/17 06:01:21;;;;;;;17.40;6.70;;;;;;;16.30;100.00;98292.01;111441;1248;22980;-44
2024/04/17 06:03:54;;;;;;;12.20;7.00;;;;;;;16.38;100.00;98296.47;111993;1248;23193;-45
2024/04/17 06:06:24;;;;;;;15.60;7.80;;;;;;;16.41;100.00;98300.67;112045;1248;23173;-55
2024/04/17 06:09:39;;;;;;;17.20;6.90;;;;;;;16.44;100.00;98298.05;112275;1248;22408;-55
2024/04/17 06:34:15;;;;;;;16.60;6.40;;;;;;;16.81;100.00;98331.56;112803;1248;22409;-55
2024/04/17 07:02:51;;;;;;;16.60;7.80;;;;;;;16.68;100.00;98379.95;112930;1248;22381;-48
2024/04/17 07:06:16;;;;;;;18.60;7.40;;;;;;;16.67;100.00;98360.32;112673;1247;22443;-46
2024/04/17 07:10:16;;;;;;;19.60;6.50;;;;;;;16.67;100.00;98355.95;112364;1248;22432;-47
2024/04/17 07:18:35;;;;;;;21.50;8.30;;;;;;;16.77;100.00;98347.14;112175;1246;22498;-50
2024/04/17 07:21:27;;;;;;;20.80;8.00;;;;;;;16.93;100.00;98350.08;112496;1247;22502;-54
2024/04/17 07:24:24;;;;;;;15.20;9.50;;;;;;;17.03;100.00;98352.68;112567;1248;23220;-47
2024/04/17 07:28:06;;;;;;;18.90;9.40;;;;;;;17.09;100.00;98344.98;111133;1248;22505;-51
2024/04/17 07:34:50;;;;;;;26.80;11.00;;;;;;;16.98;100.00;98389.23;114615;1238;21967;31
2024/04/17 07:37:19;;;;;;;26.30;12.00;;;;;;;16.95;100.00;98389.98;111227;1247;1544614;-46
2024/04/17 07:39:45;;;;;;;20.30;11.80;;;;;;;16.92;100.00;98386.39;111685;1247;22498;-42
2024/04/17 07:42:17;;;;;;;22.00;11.40;;;;;;;16.92;100.00;98382.93;113009;1247;22379;-42
2024/04/17 07:44:51;;;;;;;19.30;9.50;;;;;;;16.91;100.00;98374.84;112093;1247;22476;-46
2024/04/17 07:47:18;;;;;;;24.00;10.30;;;;;;;16.96;100.00;98370.67;111963;1247;22424;-42
2024/04/17 07:49:47;;;;;;;21.60;9.80;;;;;;;17.10;100.00;98357.23;110878;1247;22959;-56
2024/04/17 07:52:16;;;;;;;23.80;10.00;;;;;;;17.26;100.00;98358.21;111950;1247;22528;-46
2024/04/17 07:54:44;;;;;;;20.80;9.80;;;;;;;17.42;100.00;98356.64;111286;1247;22526;-46
2024/04/17 07:57:10;;;;;;;18.20;8.80;;;;;;;17.60;100.00;98346.39;112342;1247;22408;-44
2024/04/17 07:59:37;;;;;;;22.20;9.70;;;;;;;17.81;100.00;98345.16;113184;1243;22418;-51
2024/04/17 08:02:07;;;;;;;27.10;11.50;;;;;;;17.97;100.00;98334.66;112361;1247;22517;-57
2024/04/17 08:04:35;;;;;;;26.40;13.00;;;;;;;18.12;100.00;98329.14;111550;1247;22519;-54
2024/04/17 08:07:04;;;;;;;27.50;10.80;;;;;;;18.24;100.00;98318.39;112722;1247;23492;-49
2024/04/17 08:09:31;;;;;;;24.20;11.00;;;;;;;18.36;100.00;98309.50;112911;1247;22424;-46
2024/04/17 08:11:58;;;;;;;24.30;11.60;;;;;;;18.48;100.00;98305.17;112791;1247;22506;-56
2024/04/17 08:14:25;;;;;;;22.70;11.10;;;;;;;18.54;100.00;98309.58;112989;1247;22416;-57
2024/04/17 08:16:53;;;;;;;24.90;11.30;;;;;;;18.52;100.00;98314.48;112469;1247;22548;-57
2024/04/17 08:19:22;;;;;;;37.10;11.50;;;;;;;18.52;100.00;98318.20;112398;1243;23085;-57
2024/04/17 08:21:54;;;;;;;20.10;8.30;;;;;;;18.50;100.00;98325.75;112110;1247;22454;-46
2024/04/17 08:24:21;;;;;;;17.90;9.20;;;;;;;18.48;100.00;98324.27;113015;1237;22883;-47
2024/04/17 08:26:48;;;;;;;20.30;8.00;;;;;;;18.48;100.00;98323.34;113001;1247;23164;-47
2024/04/17 08:29:15;;;;;;;23.80;9.20;;;;;;;18.54;100.00;98332.02;112982;1247;23184;-46
2024/04/17 08:31:43;;;;;;;26.20;8.20;;;;;;;18.61;100.00;98334.39;113008;1247;22408;-46
2024/04/17 08:34:10;;;;;;;25.80;10.00;;;;;;;18.69;100.00;98341.65;111772;1247;22427;-56
2024/04/17 08:36:39;;;;;;;20.20;8.50;;;;;;;18.76;100.00;98341.36;112533;1247;23264;-45
2024/04/17 08:39:06;;;;;;;19.40;7.80;;;;;;;18.77;100.00;98345.88;112954;1247;22216;-46
2024/04/17 08:41:33;;;;;;;20.90;8.40;;;;;;;18.78;100.00;98346.19;112777;1247;22685;-45
2024/04/17 08:44:02;;;;;;;16.00;7.40;;;;;;;18.77;100.00;98353.65;112887;1247;22233;-45
2024/04/17 08:46:29;;;;;;;15.60;7.10;;;;;;;18.73;100.00;98358.19;112298;1247;25393;-57
2024/04/17 08:48:56;;;;;;;19.00;7.20;;;;;;;18.64;100.00;98360.14;112912;1247;22454;-56
2024/04/17 08:51:24;;;;;;;18.20;7.80;;;;;;;18.54;100.00;98367.11;113084;1247;22460;-57
2024/04/17 08:53:53;;;;;;;24.20;8.10;;;;;;;18.45;100.00;98368.88;112584;1241;22433;-56
2024/04/17 08:56:24;;;;;;;16.70;6.20;;;;;;;18.39;100.00;98360.99;112880;1247;22372;-57
2024/04/17 08:58:51;;;;;;;13.30;6.10;;;;;;;18.38;100.00;98352.26;112384;1247;23327;-48
2024/04/17 09:01:18;;;;;;;16.90;6.10;;;;;;;18.40;100.00;98337.27;111639;1237;22518;-58
2024/04/17 09:03:45;;;;;;;23.90;6.90;;;;;;;18.44;100.00;98336.14;112968;1247;22147;-57
2024/04/17 09:06:16;;;;;;;15.80;7.20;;;;;;;18.52;100.00;98334.06;112581;1247;22424;-57
2024/04/17 09:08:43;;;;;;;18.00;6.10;;;;;;;18.59;100.00;98329.02;112755;1247;22410;-57
2024/04/17 09:11:10;;;;;;;15.70;7.10;;;;;;;18.65;100.00;98325.48;112720;1247;22379;-58
2024/04/17 09:13:37;;;;;;;13.30;6.20;;;;;;;18.68;100.00;98321.27;113016;1247;22426;-47
2024/04/17 09:16:03;;;;;;;20.00;6.20;;;;;;;18.69;100.00;98310.42;112374;1247;26330;-47
2024/04/17 09:18:31;;;;;;;17.60;6.50;;;;;;;18.67;100.00;98307.19;112754;1247;22524;-57
2024/04/17 09:20:58;;;;;;;24.00;6.60;;;;;;;18.63;100.00;98309.70;112182;1247;22276;-57
2024/04/17 09:23:25;;;;;;;15.20;7.10;;;;;;;18.61;100.00;98302.92;112792;1247;22325;-58
2024/04/17 09:25:54;;;;;;;24.10;7.00;;;;;;;18.64;100.00;98299.05;112999;1247;22163;-58
2024/04/17 09:28:22;;;;;;;10.60;5.50;;;;;;;18.69;100.00;98307.41;113022;1247;22225;-59
2024/04/17 09:30:49;;;;;;;17.00;6.40;;;;;;;18.72;100.00;98312.32;113037;1247;22395;-58
2024/04/17 09:33:16;;;;;;;20.60;6.50;;;;;;;18.76;100.00;98315.95;112532;1247;23257;-47
2024/04/17 09:35:43;;;;;;;17.10;5.90;;;;;;;18.82;100.00;98316.63;113094;1247;22306;-47
2024/04/17 09:38:14;;;;;;;22.30;6.60;;;;;;;18.88;100.00;98314.66;113119;1247;23004;-46
2024/04/17 09:40:44;;;;;;;18.20;6.90;;;;;;;18.94;100.00;98313.36;113103;1247;22359;-48
2024/04/17 09:43:24;;;;;;;17.70;6.10;;;;;;;18.97;100.00;98316.20;113060;1247;22391;-46
2024/04/17 09:46:05;;;;;;;11.30;5.70;;;;;;;18.98;100.00;98318.60;112813;1247;22461;-48
2024/04/17 09:48:35;;;;;;;12.90;5.70;;;;;;;18.96;100.00;98312.55;113013;1247;22483;-46
2024/04/17 09:51:06;;;;;;;13.30;5.60;;;;;;;18.99;100.00;98307.23;113056;1238;22495;-47
2024/04/17 09:53:33;;;;;;;19.60;5.80;;;;;;;19.06;100.00;98308.89;112002;1247;23239;-46
2024/04/17 09:56:05;;;;;;;22.50;6.70;;;;;;;19.09;99.92;98307.60;112982;1247;22219;-47
2024/04/17 09:58:32;;;;;;;22.30;7.60;;;;;;;19.11;98.92;98306.56;113081;1247;22414;-46
2024/04/17 10:01:07;;;;;;;22.30;7.40;;;;;;;19.12;97.85;98301.95;112896;1247;22982;-47
2024/04/17 10:03:36;;;;;;;19.10;7.10;;;;;;;19.11;98.56;98301.13;112114;1247;22493;-58
2024/04/17 10:06:04;;;;;;;21.40;7.70;;;;;;;19.10;98.35;98300.14;112865;1247;23105;-58
2024/04/17 10:08:32;;;;;;;16.40;7.10;;;;;;;19.15;98.49;98297.53;112934;1247;23222;-47
2024/04/17 10:10:59;;;;;;;15.30;6.90;;;;;;;19.22;98.44;98300.02;112778;1247;22505;-47
2024/04/17 10:13:26;;;;;;;18.90;6.80;;;;;;;19.30;98.79;98299.52;112311;1247;22434;-58
2024/04/17 10:15:53;;;;;;;20.80;7.80;;;;;;;19.39;98.04;98304.01;112939;1247;22355;-57
2024/04/17 10:18:20;;;;;;;18.20;8.10;;;;;;;19.46;97.78;98305.55;112855;1247;22418;-50
2024/04/17 10:20:47;;;;;;;20.80;7.60;;;;;;;19.52;96.61;98309.52;112793;1247;22448;-50
2024/04/17 10:23:14;;;;;;;16.90;7.50;;;;;;;19.57;96.50;98312.91;113004;1244;22480;-48
2024/04/17 10:25:48;;;;;;;20.20;6.50;;;;;;;19.65;96.29;98307.95;112980;1247;22827;-51
2024/04/17 10:28:21;;;;;;;18.20;7.50;;;;;;;19.80;95.75;98310.61;112331;1247;23009;-50
2024/04/17 10:30:48;;;;;;;19.90;6.30;;;;;;;20.05;94.24;98314.70;112789;1247;22486;-50
2024/04/17 10:33:19;;;;;;;16.30;7.90;;;;;;;20.23;93.34;98310.64;112732;1247;22560;-41
2024/04/17 10:35:48;;;;;;;14.30;7.40;;;;;;;20.32;91.46;98313.38;112848;1241;23189;-43
2024/04/17 10:38:15;;;;;;;19.50;7.50;;;;;;;20.32;91.25;98303.65;112883;1247;22402;-43
2024/04/17 10:41:10;;;;;;;16.70;6.60;;;;;;;20.38;92.15;98301.92;112941;1232;23125;-44
2024/04/17 10:43:43;;;;;;;24.20;7.60;;;;;;;20.49;90.97;98295.49;113001;1247;22453;-51
2024/04/17 10:46:10;;;;;;;22.80;7.10;;;;;;;20.59;90.38;98296.75;112661;1247;22453;-44
2024/04/17 10:48:46;;;;;;;21.10;7.30;;;;;;;20.65;89.58;98298.77;113002;1247;22457;-42
2024/04/17 10:51:17;;;;;;;17.80;7.00;;;;;;;20.67;89.13;98297.06;112937;1247;23401;-52
2024/04/17 10:53:46;;;;;;;19.80;7.30;;;;;;;20.67;88.34;98303.10;113025;1247;22157;-55
2024/04/17 10:56:13;;;;;;;21.80;6.80;;;;;;;20.67;87.90;98318.65;113059;1247;22377;-53
2024/04/17 10:58:42;;;;;;;21.80;7.40;;;;;;;20.69;85.80;98322.42;113095;1247;22390;-55
2024/04/17 11:01:12;;;;;;;19.00;7.00;;;;;;;20.63;85.87;98323.89;113096;1247;22386;-58
2024/04/17 11:03:39;;;;;;;23.90;6.30;;;;;;;20.56;86.14;98328.17;113040;1247;22459;-57
2024/04/17 11:06:10;;;;;;;23.10;6.60;;;;;;;20.47;86.16;98341.14;112989;1244;23242;-58
2024/04/17 11:08:41;;;;;;;25.40;6.20;;;;;;;20.37;85.96;98344.16;112889;1247;22462;-56
2024/04/17 11:11:21;;;;;;;11.90;5.00;;;;;;;20.28;87.67;98345.73;112971;1242;23245;-57
2024/04/17 11:13:51;;;;;;;18.10;6.00;;;;;;;20.21;88.12;98345.65;112949;1247;22420;-48
2024/04/17 11:16:18;;;;;;;28.70;6.80;;;;;;;20.17;88.26;98343.11;112910;1244;22432;-51
2024/04/17 11:18:45;;;;;;;20.70;6.90;;;;;;;20.12;87.38;98337.73;112953;1247;22767;-48
2024/04/17 11:21:12;;;;;;;25.20;7.80;;;;;;;20.12;86.04;98331.58;112918;1247;22654;-56
2024/04/17 11:23:43;;;;;;;23.20;6.80;;;;;;;20.13;84.10;98336.13;112988;1247;23728;-56
2024/04/17 11:26:10;;;;;;;21.20;6.20;;;;;;;20.16;84.89;98332.02;112932;1247;22343;-50
2024/04/17 11:28:43;;;;;;;23.40;7.30;;;;;;;20.19;85.43;98336.23;112947;1247;22483;-47
2024/04/17 11:31:14;;;;;;;17.80;7.10;;;;;;;20.22;85.45;98339.60;112913;1247;23357;-46
2024/04/17 11:33:44;;;;;;;39.30;8.60;;;;;;;20.20;85.32;98343.25;112537;1247;22427;-56
2024/04/17 11:36:14;;;;;;;26.10;6.50;;;;;;;20.15;85.99;98341.42;112963;1247;22391;-56
2024/04/17 11:38:44;;;;;;;22.90;8.10;;;;;;;20.10;86.51;98338.94;112964;1247;22149;-56
2024/04/17 11:41:13;;;;;;;23.00;7.90;;;;;;;20.07;86.82;98336.37;113036;1247;23209;-48
2024/04/17 11:43:42;;;;;;;28.50;8.30;;;;;;;20.04;87.14;98337.78;112704;1247;23249;-57
2024/04/17 11:46:10;;;;;;;20.00;7.30;;;;;;;20.02;87.56;98334.60;111343;1246;22484;-56
2024/04/17 11:48:37;;;;;;;31.80;10.00;;;;;;;19.99;87.33;98336.01;111863;1238;22434;-46
2024/04/17 11:51:05;;;;;;;29.60;9.50;;;;;;;19.97;86.45;98340.42;112970;1247;22381;-49
2024/04/17 11:53:32;;;;;;;27.10;10.10;;;;;;;19.95;87.28;98341.61;113073;1247;23001;-57
2024/04/17 11:55:58;;;;;;;29.20;11.30;;;;;;;19.95;87.91;98336.70;113057;1247;22558;-60
2024/04/17 11:58:25;;;;;;;31.10;11.40;;;;;;;19.97;88.08;98336.89;113136;1241;22393;-61
2024/04/17 12:00:52;;;;;;;30.90;9.40;;;;;;;20.02;88.33;98335.27;113108;1247;22311;-58
2024/04/17 12:03:20;;;;;;;28.70;7.20;;;;;;;20.08;87.51;98336.08;113170;1247;22423;-60
2024/04/17 12:05:48;;;;;;;23.30;7.30;;;;;;;20.13;87.96;98335.94;113136;1235;23093;-60
2024/04/17 12:08:19;;;;;;;21.60;7.10;;;;;;;20.17;88.60;98335.67;113194;1247;22307;-51
2024/04/17 12:10:47;;;;;;;16.90;5.30;;;;;;;20.21;89.09;98330.54;112877;1245;22230;-59
2024/04/17 12:13:14;;;;;;;19.40;7.40;;;;;;;20.25;88.93;98329.62;113155;1241;22429;-60
2024/04/17 12:15:41;;;;;;;21.50;6.80;;;;;;;20.28;87.88;98329.41;113114;1247;22693;-60
2024/04/17 12:18:08;;;;;;;24.50;7.40;;;;;;;20.28;87.43;98335.56;112833;1245;22488;-58
2024/04/17 12:20:34;;;;;;;23.20;5.90;;;;;;;20.28;86.38;98337.36;112998;1246;23026;-49
